sensor_id;sensor_type;location;lat;lon;timestamp;P1;durP1;ratioP1;P2;durP2;ratioP2
45011;SDS011;63444;48.148;11.542;2023-03-31T00:02:09;9.60;;;4.30;;
45011;SDS011;63444;48.148;11.542;2023-03-31T00:04:38;7.10;;;4.23;;
45011;SDS011;63444;48.148;11.542;2023-03-31T00:07:13;5.80;;;4.30;;
45011;SDS011;63444;48.148;11.542;2023-03-31T00:09:40;9.90;;;5.10;;
45011;SDS011;63444;48.148;11.542;2023-03-31T00:12:10;6.30;;;4.20;;
45011;SDS011;63444;48.148;11.542;2023-03-31T00:14:36;7.60;;;3.93;;
45011;SDS011;63444;48.148;11.542;2023-03-31T00:17:02;8.20;;;4.30;;
45011;SDS011;63444;48.148;11.542;2023-03-31T00:19:28;6.80;;;3.90;;
45011;SDS011;63444;48.148;11.542;2023-03-31T00:21:57;6.03;;;3.80;;
45011;SDS011;63444;48.148;11.542;2023-03-31T00:24:27;7.33;;;4.30;;
45011;SDS011;63444;48.148;11.542;2023-03-31T00:27:03;6.13;;;3.87;;
45011;SDS011;63444;48.148;11.542;2023-03-31T00:29:30;8.93;;;4.37;;
45011;SDS011;63444;48.148;11.542;2023-03-31T00:31:57;6.03;;;3.90;;
45011;SDS011;63444;48.148;11.542;2023-03-31T00:34:23;8.73;;;4.43;;
45011;SDS011;63444;48.148;11.542;2023-03-31T00:36:50;7.97;;;4.30;;
45011;SDS011;63444;48.148;11.542;2023-03-31T00:39:26;5.50;;;3.87;;
45011;SDS011;63444;48.148;11.542;2023-03-31T00:41:55;6.57;;;4.43;;
45011;SDS011;63444;48.148;11.542;2023-03-31T00:44:22;8.10;;;4.23;;
45011;SDS011;63444;48.148;11.542;2023-03-31T00:49:44;6.57;;;3.90;;
45011;SDS011;63444;48.148;11.542;2023-03-31T00:52:14;8.10;;;4.43;;
45011;SDS011;63444;48.148;11.542;2023-03-31T00:54:44;6.00;;;4.03;;
45011;SDS011;63444;48.148;11.542;2023-03-31T00:57:13;5.90;;;3.87;;
45011;SDS011;63444;48.148;11.542;2023-03-31T00:59:45;9.63;;;4.60;;
45011;SDS011;63444;48.148;11.542;2023-03-31T01:02:15;6.03;;;3.77;;
45011;SDS011;63444;48.148;11.542;2023-03-31T01:04:49;7.07;;;4.20;;
45011;SDS011;63444;48.148;11.542;2023-03-31T01:10:06;9.37;;;4.57;;
45011;SDS011;63444;48.148;11.542;2023-03-31T01:12:36;5.90;;;4.20;;
45011;SDS011;63444;48.148;11.542;2023-03-31T01:15:03;7.33;;;4.20;;
45011;SDS011;63444;48.148;11.542;2023-03-31T01:17:30;8.43;;;4.13;;
45011;SDS011;63444;48.148;11.542;2023-03-31T01:33:14;6.30;;;3.70;;
45011;SDS011;63444;48.148;11.542;2023-03-31T01:46:48;5.63;;;3.90;;
45011;SDS011;63444;48.148;11.542;2023-03-31T01:49:23;7.33;;;4.53;;
45011;SDS011;63444;48.148;11.542;2023-03-31T01:54:44;6.67;;;4.33;;
45011;SDS011;63444;48.148;11.542;2023-03-31T01:57:28;7.73;;;4.27;;
45011;SDS011;63444;48.148;11.542;2023-03-31T02:00:01;5.60;;;4.30;;
45011;SDS011;63444;48.148;11.542;2023-03-31T02:02:36;10.03;;;4.80;;
45011;SDS011;63444;48.148;11.542;2023-03-31T02:05:09;6.60;;;4.40;;
45011;SDS011;63444;48.148;11.542;2023-03-31T02:07:44;6.73;;;4.60;;
45011;SDS011;63444;48.148;11.542;2023-03-31T02:10:14;8.80;;;4.60;;
45011;SDS011;63444;48.148;11.542;2023-03-31T02:12:41;6.50;;;4.40;;
45011;SDS011;63444;48.148;11.542;2023-03-31T02:15:10;6.97;;;4.47;;
45011;SDS011;63444;48.148;11.542;2023-03-31T02:17:42;5.80;;;4.40;;
45011;SDS011;63444;48.148;11.542;2023-03-31T02:20:12;8.93;;;4.63;;
45011;SDS011;63444;48.148;11.542;2023-03-31T02:22:42;8.10;;;4.40;;
45011;SDS011;63444;48.148;11.542;2023-03-31T02:25:11;8.27;;;4.73;;
45011;SDS011;63444;48.148;11.542;2023-03-31T02:27:41;6.63;;;4.60;;
45011;SDS011;63444;48.148;11.542;2023-03-31T02:30:10;9.17;;;4.43;;
45011;SDS011;63444;48.148;11.542;2023-03-31T02:32:38;6.50;;;4.60;;
45011;SDS011;63444;48.148;11.542;2023-03-31T02:35:06;7.30;;;4.30;;
45011;SDS011;63444;48.148;11.542;2023-03-31T02:37:37;10.67;;;5.70;;
45011;SDS011;63444;48.148;11.542;2023-03-31T02:40:17;7.50;;;4.70;;
45011;SDS011;63444;48.148;11.542;2023-03-31T02:42:45;10.30;;;4.43;;
45011;SDS011;63444;48.148;11.542;2023-03-31T02:48:08;8.23;;;5.20;;
45011;SDS011;63444;48.148;11.542;2023-03-31T02:59:02;7.67;;;4.30;;
45011;SDS011;63444;48.148;11.542;2023-03-31T03:02:00;9.40;;;4.30;;
45011;SDS011;63444;48.148;11.542;2023-03-31T03:04:41;6.43;;;4.40;;
45011;SDS011;63444;48.148;11.542;2023-03-31T03:12:40;6.77;;;4.17;;
45011;SDS011;63444;48.148;11.542;2023-03-31T03:18:43;8.63;;;4.10;;
45011;SDS011;63444;48.148;11.542;2023-03-31T03:21:09;7.80;;;4.43;;
45011;SDS011;63444;48.148;11.542;2023-03-31T03:23:36;9.63;;;4.40;;
45011;SDS011;63444;48.148;11.542;2023-03-31T03:26:02;10.10;;;4.40;;
45011;SDS011;63444;48.148;11.542;2023-03-31T03:28:27;6.47;;;3.83;;
45011;SDS011;63444;48.148;11.542;2023-03-31T03:30:53;7.93;;;4.60;;
45011;SDS011;63444;48.148;11.542;2023-03-31T03:33:18;7.20;;;4.47;;
45011;SDS011;63444;48.148;11.542;2023-03-31T03:35:48;6.70;;;4.20;;
45011;SDS011;63444;48.148;11.542;2023-03-31T03:38:14;9.33;;;4.00;;
45011;SDS011;63444;48.148;11.542;2023-03-31T03:40:41;9.40;;;5.13;;
45011;SDS011;63444;48.148;11.542;2023-03-31T03:43:06;7.90;;;4.67;;
45011;SDS011;63444;48.148;11.542;2023-03-31T03:45:32;8.60;;;4.73;;
45011;SDS011;63444;48.148;11.542;2023-03-31T03:47:57;10.90;;;5.00;;
45011;SDS011;63444;48.148;11.542;2023-03-31T03:50:23;8.97;;;5.53;;
45011;SDS011;63444;48.148;11.542;2023-03-31T03:52:49;9.27;;;5.00;;
45011;SDS011;63444;48.148;11.542;2023-03-31T03:55:14;8.93;;;4.63;;
45011;SDS011;63444;48.148;11.542;2023-03-31T03:57:41;9.33;;;4.83;;
45011;SDS011;63444;48.148;11.542;2023-03-31T04:00:08;7.23;;;4.80;;
45011;SDS011;63444;48.148;11.542;2023-03-31T04:02:37;9.90;;;4.80;;
45011;SDS011;63444;48.148;11.542;2023-03-31T04:05:05;10.13;;;4.63;;
45011;SDS011;63444;48.148;11.542;2023-03-31T04:07:30;9.17;;;4.70;;
45011;SDS011;63444;48.148;11.542;2023-03-31T04:09:56;7.90;;;4.80;;
45011;SDS011;63444;48.148;11.542;2023-03-31T04:12:21;11.53;;;5.03;;
45011;SDS011;63444;48.148;11.542;2023-03-31T04:14:47;8.60;;;5.20;;
45011;SDS011;63444;48.148;11.542;2023-03-31T04:17:12;8.33;;;5.03;;
45011;SDS011;63444;48.148;11.542;2023-03-31T04:19:39;7.87;;;4.37;;
45011;SDS011;63444;48.148;11.542;2023-03-31T04:22:06;9.37;;;4.77;;
45011;SDS011;63444;48.148;11.542;2023-03-31T04:24:35;10.03;;;5.03;;
45011;SDS011;63444;48.148;11.542;2023-03-31T04:27:03;8.73;;;5.17;;
45011;SDS011;63444;48.148;11.542;2023-03-31T04:29:31;9.20;;;5.17;;
45011;SDS011;63444;48.148;11.542;2023-03-31T04:31:59;9.03;;;4.83;;
45011;SDS011;63444;48.148;11.542;2023-03-31T04:34:25;8.80;;;4.80;;
45011;SDS011;63444;48.148;11.542;2023-03-31T04:36:58;9.37;;;5.27;;
45011;SDS011;63444;48.148;11.542;2023-03-31T04:39:26;11.83;;;5.50;;
45011;SDS011;63444;48.148;11.542;2023-03-31T04:41:54;9.87;;;5.60;;
45011;SDS011;63444;48.148;11.542;2023-03-31T04:44:24;8.93;;;4.97;;
45011;SDS011;63444;48.148;11.542;2023-03-31T04:46:49;8.20;;;5.07;;
45011;SDS011;63444;48.148;11.542;2023-03-31T04:49:16;8.97;;;5.00;;
45011;SDS011;63444;48.148;11.542;2023-03-31T04:51:42;7.80;;;5.27;;
45011;SDS011;63444;48.148;11.542;2023-03-31T04:54:08;6.90;;;4.70;;
45011;SDS011;63444;48.148;11.542;2023-03-31T04:56:35;11.17;;;5.20;;
45011;SDS011;63444;48.148;11.542;2023-03-31T04:59:01;7.93;;;5.23;;
45011;SDS011;63444;48.148;11.542;2023-03-31T05:01:33;9.40;;;5.60;;
45011;SDS011;63444;48.148;11.542;2023-03-31T05:04:00;7.40;;;5.17;;
45011;SDS011;63444;48.148;11.542;2023-03-31T05:06:26;7.73;;;5.00;;
45011;SDS011;63444;48.148;11.542;2023-03-31T05:08:52;11.83;;;5.30;;
45011;SDS011;63444;48.148;11.542;2023-03-31T05:11:18;10.37;;;5.47;;
45011;SDS011;63444;48.148;11.542;2023-03-31T05:13:45;7.57;;;5.20;;
45011;SDS011;63444;48.148;11.542;2023-03-31T05:16:12;8.27;;;5.17;;
45011;SDS011;63444;48.148;11.542;2023-03-31T05:18:39;9.37;;;5.23;;
45011;SDS011;63444;48.148;11.542;2023-03-31T05:23:34;8.67;;;5.50;;
45011;SDS011;63444;48.148;11.542;2023-03-31T05:26:00;8.23;;;5.40;;
45011;SDS011;63444;48.148;11.542;2023-03-31T05:28:26;12.27;;;5.97;;
45011;SDS011;63444;48.148;11.542;2023-03-31T05:30:51;10.53;;;5.80;;
45011;SDS011;63444;48.148;11.542;2023-03-31T05:33:17;8.60;;;5.57;;
45011;SDS011;63444;48.148;11.542;2023-03-31T05:35:43;8.87;;;5.67;;
45011;SDS011;63444;48.148;11.542;2023-03-31T05:38:09;10.03;;;5.90;;
45011;SDS011;63444;48.148;11.542;2023-03-31T05:40:34;10.83;;;6.00;;
45011;SDS011;63444;48.148;11.542;2023-03-31T05:43:00;8.37;;;5.60;;
45011;SDS011;63444;48.148;11.542;2023-03-31T05:45:25;8.37;;;5.77;;
45011;SDS011;63444;48.148;11.542;2023-03-31T05:47:51;9.77;;;6.07;;
45011;SDS011;63444;48.148;11.542;2023-03-31T05:50:18;9.43;;;5.50;;
45011;SDS011;63444;48.148;11.542;2023-03-31T05:52:45;8.07;;;5.90;;
45011;SDS011;63444;48.148;11.542;2023-03-31T05:55:10;8.13;;;5.73;;
45011;SDS011;63444;48.148;11.542;2023-03-31T05:57:37;11.00;;;5.60;;
45011;SDS011;63444;48.148;11.542;2023-03-31T06:00:03;9.63;;;5.67;;
45011;SDS011;63444;48.148;11.542;2023-03-31T06:02:31;9.47;;;5.90;;
45011;SDS011;63444;48.148;11.542;2023-03-31T06:04:57;6.40;;;5.30;;
45011;SDS011;63444;48.148;11.542;2023-03-31T06:07:23;8.13;;;5.40;;
45011;SDS011;63444;48.148;11.542;2023-03-31T06:09:49;11.93;;;5.77;;
45011;SDS011;63444;48.148;11.542;2023-03-31T06:12:15;8.30;;;5.90;;
45011;SDS011;63444;48.148;11.542;2023-03-31T06:14:41;8.80;;;5.90;;
45011;SDS011;63444;48.148;11.542;2023-03-31T06:17:06;12.00;;;5.60;;
45011;SDS011;63444;48.148;11.542;2023-03-31T06:19:32;10.73;;;5.90;;
45011;SDS011;63444;48.148;11.542;2023-03-31T06:21:59;11.50;;;6.07;;
45011;SDS011;63444;48.148;11.542;2023-03-31T06:24:25;10.03;;;5.57;;
45011;SDS011;63444;48.148;11.542;2023-03-31T06:26:51;10.77;;;5.40;;
45011;SDS011;63444;48.148;11.542;2023-03-31T06:29:17;8.93;;;5.27;;
45011;SDS011;63444;48.148;11.542;2023-03-31T06:31:42;9.20;;;5.37;;
45011;SDS011;63444;48.148;11.542;2023-03-31T06:34:08;8.13;;;5.13;;
45011;SDS011;63444;48.148;11.542;2023-03-31T06:36:33;9.33;;;4.80;;
45011;SDS011;63444;48.148;11.542;2023-03-31T06:38:59;8.37;;;5.30;;
45011;SDS011;63444;48.148;11.542;2023-03-31T06:41:25;10.23;;;5.70;;
45011;SDS011;63444;48.148;11.542;2023-03-31T06:43:51;9.53;;;4.97;;
45011;SDS011;63444;48.148;11.542;2023-03-31T06:46:17;7.60;;;5.07;;
45011;SDS011;63444;48.148;11.542;2023-03-31T06:48:43;5.40;;;4.43;;
45011;SDS011;63444;48.148;11.542;2023-03-31T06:51:08;10.50;;;5.73;;
45011;SDS011;63444;48.148;11.542;2023-03-31T06:53:35;6.10;;;4.27;;
45011;SDS011;63444;48.148;11.542;2023-03-31T06:56:01;6.33;;;4.83;;
45011;SDS011;63444;48.148;11.542;2023-03-31T06:58:27;6.90;;;4.70;;
45011;SDS011;63444;48.148;11.542;2023-03-31T07:00:53;8.03;;;4.70;;
45011;SDS011;63444;48.148;11.542;2023-03-31T07:03:19;6.70;;;4.33;;
45011;SDS011;63444;48.148;11.542;2023-03-31T07:05:49;6.93;;;5.10;;
45011;SDS011;63444;48.148;11.542;2023-03-31T07:08:15;10.43;;;4.53;;
45011;SDS011;63444;48.148;11.542;2023-03-31T07:10:42;6.43;;;4.37;;
45011;SDS011;63444;48.148;11.542;2023-03-31T07:13:11;10.87;;;5.30;;
45011;SDS011;63444;48.148;11.542;2023-03-31T07:15:37;7.13;;;5.07;;
45011;SDS011;63444;48.148;11.542;2023-03-31T07:18:03;9.43;;;5.30;;
45011;SDS011;63444;48.148;11.542;2023-03-31T07:20:31;9.10;;;5.30;;
45011;SDS011;63444;48.148;11.542;2023-03-31T07:22:58;7.87;;;5.43;;
45011;SDS011;63444;48.148;11.542;2023-03-31T07:25:23;8.87;;;5.43;;
45011;SDS011;63444;48.148;11.542;2023-03-31T07:27:49;7.30;;;5.50;;
45011;SDS011;63444;48.148;11.542;2023-03-31T07:30:17;8.67;;;5.33;;
45011;SDS011;63444;48.148;11.542;2023-03-31T07:32:49;5.63;;;4.50;;
45011;SDS011;63444;48.148;11.542;2023-03-31T07:35:16;7.37;;;5.03;;
45011;SDS011;63444;48.148;11.542;2023-03-31T07:37:45;8.67;;;5.17;;
45011;SDS011;63444;48.148;11.542;2023-03-31T07:40:13;9.10;;;5.10;;
45011;SDS011;63444;48.148;11.542;2023-03-31T07:42:40;7.43;;;5.30;;
45011;SDS011;63444;48.148;11.542;2023-03-31T07:45:07;11.03;;;5.57;;
45011;SDS011;63444;48.148;11.542;2023-03-31T07:47:35;8.67;;;5.47;;
45011;SDS011;63444;48.148;11.542;2023-03-31T07:50:03;7.30;;;4.97;;
45011;SDS011;63444;48.148;11.542;2023-03-31T07:52:30;9.13;;;4.93;;
45011;SDS011;63444;48.148;11.542;2023-03-31T07:54:56;9.33;;;5.20;;
45011;SDS011;63444;48.148;11.542;2023-03-31T07:57:22;9.03;;;5.33;;
45011;SDS011;63444;48.148;11.542;2023-03-31T07:59:48;9.87;;;5.67;;
45011;SDS011;63444;48.148;11.542;2023-03-31T08:02:15;11.43;;;6.17;;
45011;SDS011;63444;48.148;11.542;2023-03-31T08:04:42;8.43;;;5.60;;
45011;SDS011;63444;48.148;11.542;2023-03-31T08:07:11;9.17;;;5.23;;
45011;SDS011;63444;48.148;11.542;2023-03-31T08:09:38;7.83;;;5.27;;
45011;SDS011;63444;48.148;11.542;2023-03-31T08:12:05;10.83;;;5.60;;
45011;SDS011;63444;48.148;11.542;2023-03-31T08:14:30;10.60;;;5.23;;
45011;SDS011;63444;48.148;11.542;2023-03-31T08:16:56;7.63;;;5.03;;
45011;SDS011;63444;48.148;11.542;2023-03-31T08:19:24;9.23;;;5.30;;
45011;SDS011;63444;48.148;11.542;2023-03-31T08:21:51;9.30;;;5.87;;
45011;SDS011;63444;48.148;11.542;2023-03-31T08:24:18;9.33;;;5.27;;
45011;SDS011;63444;48.148;11.542;2023-03-31T08:26:44;11.03;;;5.73;;
45011;SDS011;63444;48.148;11.542;2023-03-31T08:29:10;13.00;;;6.50;;
45011;SDS011;63444;48.148;11.542;2023-03-31T08:31:36;7.67;;;5.80;;
45011;SDS011;63444;48.148;11.542;2023-03-31T08:34:02;7.83;;;4.80;;
45011;SDS011;63444;48.148;11.542;2023-03-31T08:36:29;11.17;;;5.87;;
45011;SDS011;63444;48.148;11.542;2023-03-31T08:38:57;9.07;;;5.50;;
45011;SDS011;63444;48.148;11.542;2023-03-31T08:44:03;6.53;;;4.40;;
45011;SDS011;63444;48.148;11.542;2023-03-31T08:46:40;8.40;;;5.03;;
45011;SDS011;63444;48.148;11.542;2023-03-31T08:49:08;10.03;;;4.90;;
45011;SDS011;63444;48.148;11.542;2023-03-31T08:51:41;6.70;;;4.87;;
45011;SDS011;63444;48.148;11.542;2023-03-31T08:54:13;8.17;;;3.77;;
45011;SDS011;63444;48.148;11.542;2023-03-31T08:56:53;7.90;;;4.07;;
45011;SDS011;63444;48.148;11.542;2023-03-31T08:59:30;5.83;;;3.70;;
45011;SDS011;63444;48.148;11.542;2023-03-31T09:02:09;6.70;;;3.57;;
45011;SDS011;63444;48.148;11.542;2023-03-31T09:04:48;5.33;;;3.67;;
45011;SDS011;63444;48.148;11.542;2023-03-31T09:16:12;4.63;;;2.97;;
45011;SDS011;63444;48.148;11.542;2023-03-31T09:18:40;4.70;;;2.87;;
45011;SDS011;63444;48.148;11.542;2023-03-31T09:21:12;5.30;;;3.30;;
45011;SDS011;63444;48.148;11.542;2023-03-31T09:24:04;4.57;;;3.33;;
45011;SDS011;63444;48.148;11.542;2023-03-31T09:29:03;5.20;;;3.30;;
45011;SDS011;63444;48.148;11.542;2023-03-31T09:31:36;4.67;;;3.13;;
45011;SDS011;63444;48.148;11.542;2023-03-31T09:34:09;3.87;;;3.13;;
45011;SDS011;63444;48.148;11.542;2023-03-31T09:36:41;4.63;;;2.93;;
45011;SDS011;63444;48.148;11.542;2023-03-31T09:39:10;3.63;;;2.57;;
45011;SDS011;63444;48.148;11.542;2023-03-31T09:41:48;5.53;;;2.73;;
45011;SDS011;63444;48.148;11.542;2023-03-31T09:44:26;4.03;;;2.50;;
45011;SDS011;63444;48.148;11.542;2023-03-31T09:46:58;4.67;;;2.87;;
45011;SDS011;63444;48.148;11.542;2023-03-31T09:49:27;5.97;;;3.00;;
45011;SDS011;63444;48.148;11.542;2023-03-31T09:52:00;4.97;;;2.33;;
45011;SDS011;63444;48.148;11.542;2023-03-31T09:54:38;2.87;;;1.90;;
45011;SDS011;63444;48.148;11.542;2023-03-31T09:57:25;2.90;;;2.20;;
45011;SDS011;63444;48.148;11.542;2023-03-31T10:00:13;3.37;;;2.27;;
45011;SDS011;63444;48.148;11.542;2023-03-31T10:02:46;2.63;;;2.17;;
45011;SDS011;63444;48.148;11.542;2023-03-31T10:07:46;2.10;;;1.90;;
45011;SDS011;63444;48.148;11.542;2023-03-31T10:10:19;2.90;;;2.00;;
45011;SDS011;63444;48.148;11.542;2023-03-31T10:12:57;3.73;;;2.10;;
45011;SDS011;63444;48.148;11.542;2023-03-31T10:15:31;3.23;;;2.37;;
45011;SDS011;63444;48.148;11.542;2023-03-31T10:18:02;2.10;;;1.80;;
45011;SDS011;63444;48.148;11.542;2023-03-31T10:20:38;4.70;;;2.30;;
45011;SDS011;63444;48.148;11.542;2023-03-31T10:23:15;3.85;;;2.38;;
45011;SDS011;63444;48.148;11.542;2023-03-31T10:25:46;4.10;;;2.35;;
45011;SDS011;63444;48.148;11.542;2023-03-31T10:28:14;3.45;;;2.30;;
45011;SDS011;63444;48.148;11.542;2023-03-31T10:30:46;3.03;;;2.20;;
45011;SDS011;63444;48.148;11.542;2023-03-31T10:33:25;3.97;;;2.10;;
45011;SDS011;63444;48.148;11.542;2023-03-31T10:35:58;5.88;;;2.15;;
45011;SDS011;63444;48.148;11.542;2023-03-31T10:38:32;3.08;;;2.03;;
45011;SDS011;63444;48.148;11.542;2023-03-31T10:41:06;2.80;;;2.20;;
45011;SDS011;63444;48.148;11.542;2023-03-31T10:43:42;4.65;;;2.25;;
45011;SDS011;63444;48.148;11.542;2023-03-31T10:46:16;3.17;;;2.47;;
45011;SDS011;63444;48.148;11.542;2023-03-31T10:48:42;4.88;;;2.53;;
45011;SDS011;63444;48.148;11.542;2023-03-31T10:51:17;4.93;;;2.45;;
45011;SDS011;63444;48.148;11.542;2023-03-31T10:53:51;5.50;;;2.72;;
45011;SDS011;63444;48.148;11.542;2023-03-31T11:04:31;6.40;;;2.90;;
45011;SDS011;63444;48.148;11.542;2023-03-31T11:15:38;5.57;;;2.90;;
45011;SDS011;63444;48.148;11.542;2023-03-31T11:21:10;7.53;;;2.80;;
45011;SDS011;63444;48.148;11.542;2023-03-31T11:26:38;2.80;;;1.67;;
45011;SDS011;63444;48.148;11.542;2023-03-31T11:44:01;2.37;;;1.33;;
45011;SDS011;63444;48.148;11.542;2023-03-31T11:46:47;2.60;;;1.60;;
45011;SDS011;63444;48.148;11.542;2023-03-31T11:49:27;2.60;;;1.50;;
45011;SDS011;63444;48.148;11.542;2023-03-31T11:52:08;3.70;;;1.47;;
45011;SDS011;63444;48.148;11.542;2023-03-31T11:54:55;3.37;;;1.53;;
45011;SDS011;63444;48.148;11.542;2023-03-31T11:59:56;3.60;;;1.77;;
45011;SDS011;63444;48.148;11.542;2023-03-31T12:05:10;2.40;;;1.37;;
45011;SDS011;63444;48.148;11.542;2023-03-31T12:10:28;1.77;;;1.50;;
45011;SDS011;63444;48.148;11.542;2023-03-31T12:16:21;6.20;;;1.73;;
45011;SDS011;63444;48.148;11.542;2023-03-31T12:24:42;2.33;;;1.73;;
45011;SDS011;63444;48.148;11.542;2023-03-31T12:30:27;2.63;;;1.57;;
45011;SDS011;63444;48.148;11.542;2023-03-31T12:33:11;1.90;;;1.43;;
45011;SDS011;63444;48.148;11.542;2023-03-31T12:36:11;2.47;;;1.50;;
45011;SDS011;63444;48.148;11.542;2023-03-31T12:41:37;3.67;;;1.73;;
45011;SDS011;63444;48.148;11.542;2023-03-31T12:44:23;2.67;;;1.57;;
45011;SDS011;63444;48.148;11.542;2023-03-31T12:47:01;1.90;;;1.70;;
45011;SDS011;63444;48.148;11.542;2023-03-31T12:49:34;4.37;;;1.90;;
45011;SDS011;63444;48.148;11.542;2023-03-31T12:52:34;1.93;;;1.47;;
45011;SDS011;63444;48.148;11.542;2023-03-31T12:55:32;2.53;;;1.73;;
45011;SDS011;63444;48.148;11.542;2023-03-31T13:05:58;5.47;;;2.13;;
45011;SDS011;63444;48.148;11.542;2023-03-31T13:11:17;3.77;;;1.43;;
45011;SDS011;63444;48.148;11.542;2023-03-31T13:19:44;2.17;;;1.30;;
45011;SDS011;63444;48.148;11.542;2023-03-31T13:28:16;3.43;;;1.30;;
45011;SDS011;63444;48.148;11.542;2023-03-31T13:30:59;1.87;;;1.20;;
45011;SDS011;63444;48.148;11.542;2023-03-31T13:39:05;4.43;;;1.40;;
45011;SDS011;63444;48.148;11.542;2023-03-31T13:45:08;2.87;;;1.30;;
45011;SDS011;63444;48.148;11.542;2023-03-31T13:48:01;2.00;;;1.10;;
45011;SDS011;63444;48.148;11.542;2023-03-31T13:50:40;3.17;;;1.30;;
45011;SDS011;63444;48.148;11.542;2023-03-31T13:53:22;3.67;;;1.27;;
45011;SDS011;63444;48.148;11.542;2023-03-31T13:59:52;5.10;;;1.20;;
45011;SDS011;63444;48.148;11.542;2023-03-31T14:02:22;3.00;;;1.20;;
45011;SDS011;63444;48.148;11.542;2023-03-31T14:05:11;3.43;;;1.20;;
45011;SDS011;63444;48.148;11.542;2023-03-31T14:07:44;1.70;;;1.10;;
45011;SDS011;63444;48.148;11.542;2023-03-31T14:10:24;1.97;;;1.30;;
45011;SDS011;63444;48.148;11.542;2023-03-31T14:15:31;2.60;;;1.50;;
45011;SDS011;63444;48.148;11.542;2023-03-31T14:17:58;2.77;;;1.43;;
45011;SDS011;63444;48.148;11.542;2023-03-31T14:20:40;2.57;;;1.40;;
45011;SDS011;63444;48.148;11.542;2023-03-31T14:26:05;5.23;;;1.77;;
45011;SDS011;63444;48.148;11.542;2023-03-31T14:31:29;3.67;;;1.40;;
45011;SDS011;63444;48.148;11.542;2023-03-31T14:34:14;2.00;;;1.20;;
45011;SDS011;63444;48.148;11.542;2023-03-31T14:39:21;3.30;;;1.40;;
45011;SDS011;63444;48.148;11.542;2023-03-31T14:41:52;4.03;;;1.60;;
45011;SDS011;63444;48.148;11.542;2023-03-31T14:44:18;2.90;;;1.37;;
45011;SDS011;63444;48.148;11.542;2023-03-31T14:46:44;2.60;;;1.00;;
45011;SDS011;63444;48.148;11.542;2023-03-31T14:49:14;0.90;;;0.80;;
45011;SDS011;63444;48.148;11.542;2023-03-31T14:51:44;2.10;;;0.90;;
45011;SDS011;63444;48.148;11.542;2023-03-31T14:54:17;4.03;;;1.10;;
45011;SDS011;63444;48.148;11.542;2023-03-31T14:56:47;1.40;;;0.90;;
45011;SDS011;63444;48.148;11.542;2023-03-31T14:59:28;2.20;;;1.00;;
45011;SDS011;63444;48.148;11.542;2023-03-31T15:01:57;1.53;;;0.80;;
45011;SDS011;63444;48.148;11.542;2023-03-31T15:04:24;1.33;;;1.00;;
45011;SDS011;63444;48.148;11.542;2023-03-31T15:06:52;1.50;;;0.90;;
45011;SDS011;63444;48.148;11.542;2023-03-31T15:09:28;1.40;;;1.20;;
45011;SDS011;63444;48.148;11.542;2023-03-31T15:11:58;1.67;;;1.23;;
45011;SDS011;63444;48.148;11.542;2023-03-31T15:14:32;1.20;;;1.10;;
45011;SDS011;63444;48.148;11.542;2023-03-31T15:17:01;3.97;;;1.20;;
45011;SDS011;63444;48.148;11.542;2023-03-31T15:19:29;1.20;;;1.10;;
45011;SDS011;63444;48.148;11.542;2023-03-31T15:22:01;2.80;;;1.20;;
45011;SDS011;63444;48.148;11.542;2023-03-31T15:24:35;2.37;;;1.40;;
45011;SDS011;63444;48.148;11.542;2023-03-31T15:27:08;3.23;;;1.20;;
45011;SDS011;63444;48.148;11.542;2023-03-31T15:29:41;2.03;;;1.23;;
45011;SDS011;63444;48.148;11.542;2023-03-31T15:32:14;2.50;;;1.20;;
45011;SDS011;63444;48.148;11.542;2023-03-31T15:34:52;1.20;;;1.10;;
45011;SDS011;63444;48.148;11.542;2023-03-31T15:37:29;3.77;;;1.70;;
45011;SDS011;63444;48.148;11.542;2023-03-31T15:39:59;2.03;;;1.20;;
45011;SDS011;63444;48.148;11.542;2023-03-31T15:42:31;1.80;;;1.20;;
45011;SDS011;63444;48.148;11.542;2023-03-31T15:47:52;7.00;;;1.80;;
45011;SDS011;63444;48.148;11.542;2023-03-31T15:50:20;2.17;;;1.43;;
45011;SDS011;63444;48.148;11.542;2023-03-31T15:52:50;2.67;;;1.33;;
45011;SDS011;63444;48.148;11.542;2023-03-31T15:55:27;3.47;;;1.50;;
45011;SDS011;63444;48.148;11.542;2023-03-31T15:57:54;4.07;;;1.20;;
45011;SDS011;63444;48.148;11.542;2023-03-31T16:03:17;1.70;;;1.20;;
45011;SDS011;63444;48.148;11.542;2023-03-31T16:05:59;2.43;;;1.30;;
45011;SDS011;63444;48.148;11.542;2023-03-31T16:08:47;2.07;;;1.30;;
45011;SDS011;63444;48.148;11.542;2023-03-31T16:11:22;2.07;;;1.27;;
45011;SDS011;63444;48.148;11.542;2023-03-31T16:13:56;3.13;;;1.50;;
45011;SDS011;63444;48.148;11.542;2023-03-31T16:16:25;2.77;;;1.50;;
45011;SDS011;63444;48.148;11.542;2023-03-31T16:19:00;2.53;;;1.20;;
45011;SDS011;63444;48.148;11.542;2023-03-31T16:21:39;2.37;;;1.37;;
45011;SDS011;63444;48.148;11.542;2023-03-31T16:24:14;4.63;;;1.57;;
45011;SDS011;63444;48.148;11.542;2023-03-31T16:26:40;2.90;;;1.40;;
45011;SDS011;63444;48.148;11.542;2023-03-31T16:29:06;2.60;;;1.40;;
45011;SDS011;63444;48.148;11.542;2023-03-31T16:31:36;2.77;;;1.67;;
45011;SDS011;63444;48.148;11.542;2023-03-31T16:34:07;2.53;;;1.80;;
45011;SDS011;63444;48.148;11.542;2023-03-31T16:36:35;2.33;;;1.60;;
45011;SDS011;63444;48.148;11.542;2023-03-31T16:39:03;5.03;;;1.87;;
45011;SDS011;63444;48.148;11.542;2023-03-31T16:41:33;2.57;;;1.70;;
45011;SDS011;63444;48.148;11.542;2023-03-31T16:44:02;2.57;;;1.90;;
45011;SDS011;63444;48.148;11.542;2023-03-31T16:46:27;2.37;;;1.60;;
45011;SDS011;63444;48.148;11.542;2023-03-31T16:48:53;3.73;;;1.60;;
45011;SDS011;63444;48.148;11.542;2023-03-31T16:51:19;4.33;;;1.90;;
45011;SDS011;63444;48.148;11.542;2023-03-31T16:53:45;1.87;;;1.33;;
45011;SDS011;63444;48.148;11.542;2023-03-31T16:56:11;2.47;;;1.70;;
45011;SDS011;63444;48.148;11.542;2023-03-31T16:58:38;1.63;;;1.30;;
45011;SDS011;63444;48.148;11.542;2023-03-31T17:01:04;4.00;;;1.00;;
45011;SDS011;63444;48.148;11.542;2023-03-31T17:03:31;0.87;;;0.70;;
45011;SDS011;63444;48.148;11.542;2023-03-31T17:05:57;1.00;;;0.83;;
45011;SDS011;63444;48.148;11.542;2023-03-31T17:08:30;0.80;;;0.80;;
45011;SDS011;63444;48.148;11.542;2023-03-31T17:11:07;1.33;;;1.10;;
45011;SDS011;63444;48.148;11.542;2023-03-31T17:13:35;1.40;;;1.00;;
45011;SDS011;63444;48.148;11.542;2023-03-31T17:16:02;0.90;;;0.90;;
45011;SDS011;63444;48.148;11.542;2023-03-31T17:18:29;3.70;;;1.20;;
45011;SDS011;63444;48.148;11.542;2023-03-31T17:21:01;2.00;;;1.10;;
45011;SDS011;63444;48.148;11.542;2023-03-31T17:23:37;1.70;;;0.93;;
45011;SDS011;63444;48.148;11.542;2023-03-31T17:26:04;3.00;;;1.00;;
45011;SDS011;63444;48.148;11.542;2023-03-31T17:28:33;1.63;;;1.10;;
45011;SDS011;63444;48.148;11.542;2023-03-31T17:30:59;2.60;;;1.10;;
45011;SDS011;63444;48.148;11.542;2023-03-31T17:33:27;0.70;;;0.70;;
45011;SDS011;63444;48.148;11.542;2023-03-31T17:35:54;2.90;;;1.07;;
45011;SDS011;63444;48.148;11.542;2023-03-31T17:38:23;1.20;;;1.10;;
45011;SDS011;63444;48.148;11.542;2023-03-31T17:40:49;1.30;;;1.00;;
45011;SDS011;63444;48.148;11.542;2023-03-31T17:43:15;1.53;;;1.13;;
45011;SDS011;63444;48.148;11.542;2023-03-31T17:45:40;1.90;;;0.93;;
45011;SDS011;63444;48.148;11.542;2023-03-31T17:48:06;3.00;;;1.10;;
45011;SDS011;63444;48.148;11.542;2023-03-31T17:50:33;1.27;;;1.10;;
45011;SDS011;63444;48.148;11.542;2023-03-31T17:52:59;2.33;;;1.10;;
45011;SDS011;63444;48.148;11.542;2023-03-31T17:55:32;1.87;;;1.10;;
45011;SDS011;63444;48.148;11.542;2023-03-31T17:57:59;2.60;;;1.00;;